createdAt,value
2022-10-08T00:01:28.615Z,80.69
2022-10-08T00:03:57.069Z,81.65
2022-10-08T00:06:28.428Z,82.09
2022-10-08T00:09:07.601Z,84.74
2022-10-08T00:11:38.771Z,81.76
2022-10-08T00:14:08.225Z,81.98
2022-10-08T00:16:40.985Z,80.85
2022-10-08T00:19:12.795Z,81.13
2022-10-08T00:21:43.245Z,79.68
2022-10-08T00:24:17.266Z,79.78
2022-10-08T00:26:44.966Z,72.89
2022-10-08T00:29:15.200Z,78.26
2022-10-08T00:31:45.725Z,78.43
2022-10-08T00:34:16.205Z,83.05
2022-10-08T00:36:43.817Z,81.59
2022-10-08T00:39:16.831Z,78.82
2022-10-08T00:41:47.922Z,81.50
2022-10-08T00:44:43.266Z,76.41
2022-10-08T00:47:32.690Z,79.06
2022-10-08T00:50:00.019Z,76.87
2022-10-08T00:52:30.998Z,81.55
2022-10-08T00:54:58.529Z,78.89
2022-10-08T00:57:27.148Z,80.64
2022-10-08T00:59:54.888Z,79.23
2022-10-08T01:02:22.362Z,78.27
2022-10-08T01:04:50.007Z,78.61
2022-10-08T01:07:25.056Z,77.73
2022-10-08T01:10:00.349Z,81.08
2022-10-08T01:12:58.711Z,83.90
2022-10-08T01:15:41.025Z,81.30
2022-10-08T01:18:21.594Z,80.84
2022-10-08T01:21:01.107Z,78.97
2022-10-08T01:23:56.162Z,76.44
2022-10-08T01:26:40.902Z,78.01
2022-10-08T01:29:17.190Z,75.85
2022-10-08T01:31:48.806Z,78.79
2022-10-08T01:34:22.292Z,76.04
2022-10-08T01:36:54.090Z,76.66
2022-10-08T01:39:25.880Z,79.83
2022-10-08T01:41:56.782Z,81.30
2022-10-08T01:44:33.908Z,79.09
2022-10-08T01:47:07.427Z,75.12
2022-10-08T01:49:42.198Z,77.80
2022-10-08T01:52:48.825Z,76.93
2022-10-08T01:55:32.367Z,76.75
2022-10-08T01:58:04.840Z,80.11
2022-10-08T02:00:34.719Z,77.27
2022-10-08T02:03:02.694Z,77.81
2022-10-08T02:05:34.903Z,80.47
2022-10-08T02:08:02.600Z,80.65
2022-10-08T02:10:30.516Z,79.63
2022-10-08T02:12:58.334Z,78.79
2022-10-08T02:15:28.811Z,86.12
2022-10-08T02:18:06.632Z,86.26
2022-10-08T02:20:45.821Z,87.44
2022-10-08T02:23:32.531Z,91.12
2022-10-08T02:26:02.961Z,93.10
2022-10-08T02:28:39.616Z,94.95
2022-10-08T02:31:18.172Z,93.79
2022-10-08T02:34:11.637Z,98.74
2022-10-08T02:36:45.744Z,99.96
2022-10-08T02:39:16.088Z,100.00
2022-10-08T02:41:51.814Z,100.00
2022-10-08T02:44:42.021Z,99.78
2022-10-08T02:47:15.073Z,98.45
2022-10-08T02:49:51.943Z,96.61
2022-10-08T02:52:22.107Z,95.37
2022-10-08T02:54:52.225Z,94.74
2022-10-08T02:57:31.239Z,93.81
2022-10-08T02:59:59.515Z,88.91
2022-10-08T03:02:39.705Z,92.49
2022-10-08T03:05:14.062Z,93.85
2022-10-08T03:07:42.945Z,95.30
2022-10-08T03:10:10.780Z,93.36
2022-10-08T03:12:38.797Z,91.06
2022-10-08T03:15:09.394Z,92.09
2022-10-08T03:17:41.732Z,92.74
2022-10-08T03:20:10.458Z,91.96
2022-10-08T03:22:38.751Z,91.29
2022-10-08T03:25:06.322Z,89.46
2022-10-08T03:27:35.494Z,88.49
2022-10-08T03:30:04.849Z,90.96
2022-10-08T03:32:32.619Z,91.55
2022-10-08T03:35:00.056Z,89.88
2022-10-08T03:37:27.445Z,88.18
2022-10-08T03:39:54.839Z,88.31
2022-10-08T03:42:22.198Z,87.08
2022-10-08T03:44:49.760Z,87.29
2022-10-08T03:47:17.211Z,85.14
2022-10-08T03:49:44.572Z,85.04
2022-10-08T03:52:11.959Z,86.79
2022-10-08T03:54:39.333Z,88.02
2022-10-08T03:57:06.778Z,86.41
2022-10-08T03:59:34.129Z,85.69
2022-10-08T04:02:01.550Z,86.67
2022-10-08T04:04:29.149Z,83.67
2022-10-08T04:06:56.618Z,82.62
2022-10-08T04:09:23.995Z,83.27
2022-10-08T04:11:51.433Z,81.55
2022-10-08T04:14:18.908Z,82.19
2022-10-08T04:16:46.481Z,80.24
2022-10-08T04:19:14.514Z,78.01
2022-10-08T04:21:42.070Z,76.72
2022-10-08T04:24:09.876Z,76.82
2022-10-08T04:26:37.287Z,76.56
2022-10-08T04:29:04.711Z,76.02
2022-10-08T04:31:32.169Z,76.28
2022-10-08T04:33:59.629Z,75.00
2022-10-08T04:36:27.133Z,74.45
2022-10-08T04:38:54.611Z,74.85
2022-10-08T04:41:26.377Z,75.53
2022-10-08T04:43:58.346Z,72.80
2022-10-08T04:46:25.868Z,71.34
2022-10-08T04:48:55.683Z,70.71
2022-10-08T04:51:25.363Z,70.13
2022-10-08T04:53:54.296Z,69.82
2022-10-08T04:56:26.637Z,69.68
2022-10-08T04:58:57.735Z,69.22
2022-10-08T05:01:26.858Z,67.99
2022-10-08T05:03:56.108Z,66.89
2022-10-08T05:06:26.305Z,67.85
2022-10-08T05:08:54.069Z,65.84
2022-10-08T05:11:25.191Z,65.91
2022-10-08T05:13:54.153Z,66.46
2022-10-08T05:16:21.922Z,65.46
2022-10-08T05:18:52.179Z,63.14
2022-10-08T05:21:22.832Z,61.15
2022-10-08T05:24:02.531Z,61.53
2022-10-08T05:26:57.036Z,59.14
2022-10-08T05:29:21.233Z,58.63
2022-10-08T05:31:48.778Z,57.84
2022-10-08T05:34:16.548Z,57.49
2022-10-08T05:36:43.961Z,56.79
2022-10-08T05:39:12.025Z,56.52
2022-10-08T05:41:39.499Z,55.84
2022-10-08T05:44:07.713Z,56.18
2022-10-08T05:46:36.475Z,57.11
2022-10-08T05:49:07.588Z,58.46
2022-10-08T05:51:36.440Z,57.90
2022-10-08T05:54:04.008Z,57.45
2022-10-08T05:56:31.970Z,57.11
2022-10-08T05:58:59.574Z,55.43
2022-10-08T06:01:29.810Z,53.92
2022-10-08T06:04:08.136Z,51.46
2022-10-08T06:06:37.523Z,50.53
2022-10-08T06:09:06.737Z,50.31
2022-10-08T06:11:36.487Z,49.50
2022-10-08T06:14:06.313Z,49.24
2022-10-08T06:16:35.113Z,48.84
2022-10-08T06:19:03.586Z,49.10
2022-10-08T06:21:31.966Z,47.95
2022-10-08T06:24:01.675Z,47.37
2022-10-08T06:26:35.608Z,47.07
2022-10-08T06:29:06.168Z,45.87
2022-10-08T06:31:35.542Z,45.81
2022-10-08T06:34:04.912Z,45.78
2022-10-08T06:36:34.359Z,45.41
2022-10-08T06:39:08.155Z,45.06
2022-10-08T06:41:35.662Z,44.50
2022-10-08T06:44:05.328Z,44.85
2022-10-08T06:46:33.515Z,44.87
2022-10-08T06:49:01.760Z,44.72
2022-10-08T06:51:29.831Z,44.32
2022-10-08T06:54:05.751Z,44.20
2022-10-08T06:56:36.294Z,45.42
2022-10-08T06:59:05.668Z,46.04
2022-10-08T07:01:35.373Z,45.60
2022-10-08T07:04:04.818Z,42.98
2022-10-08T07:06:32.169Z,42.98
2022-10-08T07:09:02.163Z,41.86
2022-10-08T07:11:32.249Z,41.24
2022-10-08T07:13:59.954Z,39.31
2022-10-08T07:16:28.840Z,38.49
2022-10-08T07:18:58.949Z,37.62
2022-10-08T07:21:28.958Z,37.80
2022-10-08T07:23:58.767Z,36.95
2022-10-08T07:26:28.368Z,36.91
2022-10-08T07:29:06.961Z,37.09
2022-10-08T07:31:36.862Z,36.78
2022-10-08T07:34:07.169Z,37.20
2022-10-08T07:36:35.215Z,37.40
2022-10-08T07:39:06.082Z,36.99
2022-10-08T07:41:33.767Z,37.12
2022-10-08T07:44:02.741Z,37.67
2022-10-08T07:46:32.796Z,37.81
2022-10-08T07:49:01.811Z,38.20
2022-10-08T07:51:31.605Z,38.07
2022-10-08T07:54:03.890Z,38.31
2022-10-08T07:56:33.946Z,38.39
2022-10-08T07:59:02.669Z,38.25
2022-10-08T08:01:31.198Z,38.20
2022-10-08T08:04:07.081Z,38.65
2022-10-08T08:06:39.909Z,38.38
2022-10-08T08:09:07.916Z,38.42
2022-10-08T08:11:35.369Z,38.13
2022-10-08T08:14:02.902Z,38.85
2022-10-08T08:16:31.803Z,39.15
2022-10-08T08:19:02.328Z,39.09
2022-10-08T08:21:32.860Z,39.02
2022-10-08T08:24:06.423Z,39.24
2022-10-08T08:26:37.010Z,39.02
2022-10-08T08:29:07.719Z,39.06
2022-10-08T08:31:38.663Z,39.20
2022-10-08T08:34:09.068Z,39.58
2022-10-08T08:36:39.378Z,39.64
2022-10-08T08:39:10.601Z,40.04
2022-10-08T08:41:53.188Z,40.04
2022-10-08T08:44:27.204Z,39.92
2022-10-08T08:47:00.589Z,40.03
2022-10-08T08:49:30.467Z,40.15
2022-10-08T08:52:00.649Z,39.87
2022-10-08T08:54:28.049Z,40.18
2022-10-08T08:56:55.892Z,40.68
2022-10-08T08:59:46.029Z,41.35
2022-10-08T09:02:54.967Z,41.13
2022-10-08T09:05:25.356Z,41.04
2022-10-08T09:08:16.411Z,41.52
2022-10-08T09:10:51.764Z,41.54
2022-10-08T09:13:44.830Z,41.14
2022-10-08T09:16:15.899Z,41.40
2022-10-08T09:18:51.658Z,41.76
2022-10-08T09:21:20.176Z,40.91
2022-10-08T09:23:48.372Z,41.21
2022-10-08T09:26:24.630Z,42.71
2022-10-08T09:29:00.398Z,42.69
2022-10-08T09:31:36.874Z,43.15
2022-10-08T09:34:10.461Z,43.43
2022-10-08T09:36:55.025Z,42.93
2022-10-08T09:39:25.824Z,42.23
2022-10-08T09:42:08.646Z,42.86
2022-10-08T09:44:42.183Z,42.91
2022-10-08T09:47:13.851Z,42.29
2022-10-08T09:49:41.844Z,42.05
2022-10-08T09:52:27.260Z,43.55
2022-10-08T09:55:21.683Z,43.65
2022-10-08T09:57:54.726Z,42.99
2022-10-08T10:00:29.506Z,42.71
2022-10-08T10:02:58.852Z,42.98
2022-10-08T10:05:32.530Z,43.52
2022-10-08T10:08:00.000Z,42.83
2022-10-08T10:10:33.654Z,42.70
2022-10-08T10:13:00.891Z,42.59
2022-10-08T10:16:04.635Z,42.69
2022-10-08T10:18:52.210Z,44.47
2022-10-08T10:21:28.992Z,46.01
2022-10-08T10:24:22.199Z,45.62
2022-10-08T10:26:54.647Z,45.57
2022-10-08T10:29:27.180Z,46.07
2022-10-08T10:32:00.710Z,46.70
2022-10-08T10:34:31.203Z,46.57
2022-10-08T10:37:05.264Z,47.10
2022-10-08T10:39:39.730Z,47.01
2022-10-08T10:42:07.077Z,45.31
2022-10-08T10:44:47.246Z,46.53
2022-10-08T10:47:15.820Z,45.54
2022-10-08T10:49:44.350Z,46.00
2022-10-08T10:52:39.276Z,47.28
2022-10-08T10:55:18.402Z,47.64
2022-10-08T10:58:08.497Z,46.74
2022-10-08T11:00:41.968Z,48.24
2022-10-08T11:03:24.166Z,48.78
2022-10-08T11:06:13.036Z,47.53
2022-10-08T11:08:59.915Z,48.65
2022-10-08T11:11:50.413Z,47.28
2022-10-08T11:14:36.361Z,48.87
2022-10-08T11:17:19.900Z,48.86
2022-10-08T11:20:04.268Z,48.36
2022-10-08T11:22:40.352Z,48.75
2022-10-08T11:26:16.481Z,48.20
2022-10-08T11:28:58.141Z,48.94
2022-10-08T11:31:36.276Z,51.43
2022-10-08T11:34:04.771Z,50.22
2022-10-08T11:36:48.394Z,51.66
2022-10-08T11:39:31.955Z,50.56
2022-10-08T11:42:08.275Z,49.20
2022-10-08T11:44:37.438Z,48.13
2022-10-08T11:47:42.126Z,49.88
2022-10-08T11:50:24.642Z,50.35
2022-10-08T11:52:54.834Z,49.38
2022-10-08T11:55:29.349Z,50.47
2022-10-08T11:58:21.354Z,51.75
2022-10-08T12:00:49.731Z,49.56
2022-10-08T12:03:27.647Z,51.49
2022-10-08T12:05:59.004Z,50.86
2022-10-08T12:08:57.535Z,52.54
2022-10-08T12:11:37.829Z,53.20
2022-10-08T12:14:11.385Z,53.17
2022-10-08T12:16:47.968Z,53.70
2022-10-08T12:19:34.281Z,54.23
2022-10-08T12:22:16.973Z,54.12
2022-10-08T12:24:49.629Z,51.77
2022-10-08T12:27:17.700Z,52.09
2022-10-08T12:30:01.054Z,52.63
2022-10-08T12:32:42.082Z,52.96
2022-10-08T12:35:28.116Z,53.36
2022-10-08T12:37:55.587Z,52.32
2022-10-08T12:40:40.796Z,52.54
2022-10-08T12:43:51.048Z,55.57
2022-10-08T12:46:44.935Z,54.57
2022-10-08T12:49:35.478Z,55.29
2022-10-08T12:52:12.030Z,54.64
2022-10-08T12:55:01.880Z,55.17
2022-10-08T12:57:39.660Z,53.44
2022-10-08T13:00:28.942Z,55.56
2022-10-08T13:03:16.864Z,54.46
2022-10-08T13:05:45.242Z,53.43
2022-10-08T13:08:18.743Z,55.34
2022-10-08T13:10:46.272Z,53.24
2022-10-08T13:13:38.548Z,55.51
2022-10-08T13:16:09.018Z,54.16
2022-10-08T13:18:37.962Z,53.38
2022-10-08T13:21:08.342Z,54.00
2022-10-08T13:23:40.067Z,54.20
2022-10-08T13:26:39.807Z,54.95
2022-10-08T13:29:22.605Z,55.46
2022-10-08T13:32:19.589Z,54.86
2022-10-08T13:34:51.426Z,53.72
2022-10-08T13:37:21.975Z,54.84
2022-10-08T13:40:02.975Z,55.23
2022-10-08T13:42:34.718Z,55.57
2022-10-08T13:45:04.403Z,55.38
2022-10-08T13:47:32.088Z,54.55
2022-10-08T13:50:02.800Z,54.76
2022-10-08T13:52:34.389Z,56.09
2022-10-08T13:55:09.046Z,57.79
2022-10-08T13:57:36.499Z,55.75
2022-10-08T14:00:05.546Z,55.84
2022-10-08T14:02:33.065Z,55.20
2022-10-08T14:05:00.417Z,55.57
2022-10-08T14:07:31.530Z,56.63
2022-10-08T14:10:01.915Z,57.15
2022-10-08T14:12:35.446Z,57.04
2022-10-08T14:15:02.846Z,56.08
2022-10-08T14:17:32.846Z,56.64
2022-10-08T14:20:00.422Z,56.42
2022-10-08T14:22:27.867Z,56.64
2022-10-08T14:24:55.219Z,56.73
2022-10-08T14:27:22.687Z,56.85
2022-10-08T14:29:50.132Z,56.91
2022-10-08T14:32:17.629Z,56.70
2022-10-08T14:34:44.959Z,57.17
2022-10-08T14:37:12.414Z,57.42
2022-10-08T14:39:39.879Z,57.16
2022-10-08T14:42:07.424Z,57.33
2022-10-08T14:44:34.794Z,57.69
2022-10-08T14:47:02.246Z,58.44
2022-10-08T14:49:29.679Z,58.01
2022-10-08T14:51:57.178Z,58.01
2022-10-08T14:54:26.059Z,58.15
2022-10-08T14:56:53.479Z,58.23
2022-10-08T14:59:22.186Z,58.89
2022-10-08T15:01:49.580Z,58.59
2022-10-08T15:04:17.251Z,59.24
2022-10-08T15:06:44.722Z,59.21
2022-10-08T15:09:12.690Z,58.04
2022-10-08T15:11:40.332Z,58.41
2022-10-08T15:14:07.836Z,58.28
2022-10-08T15:16:35.861Z,58.46
2022-10-08T15:19:07.830Z,59.96
2022-10-08T15:21:35.893Z,58.53
2022-10-08T15:24:03.497Z,59.11
2022-10-08T15:26:31.148Z,60.28
2022-10-08T15:28:58.639Z,60.36
2022-10-08T15:31:26.769Z,60.43
2022-10-08T15:33:56.374Z,61.52
2022-10-08T15:36:29.017Z,62.45
2022-10-08T15:39:12.203Z,63.68
2022-10-08T15:41:42.502Z,62.30
2022-10-08T15:44:14.298Z,62.36
2022-10-08T15:46:42.027Z,61.28
2022-10-08T15:49:09.493Z,61.80
2022-10-08T15:51:37.013Z,61.18
2022-10-08T15:54:04.938Z,61.87
2022-10-08T15:56:32.760Z,61.79
2022-10-08T15:59:01.438Z,60.98
2022-10-08T16:01:29.865Z,60.59
2022-10-08T16:03:58.437Z,61.59
2022-10-08T16:06:29.322Z,62.99
2022-10-08T16:08:58.208Z,63.73
2022-10-08T16:11:29.572Z,64.95
2022-10-08T16:14:03.272Z,65.18
2022-10-08T16:16:31.097Z,62.77
2022-10-08T16:19:02.234Z,64.04
2022-10-08T16:21:31.792Z,64.24
2022-10-08T16:23:59.790Z,64.04
2022-10-08T16:26:29.233Z,63.79
2022-10-08T16:28:59.413Z,64.09
2022-10-08T16:31:28.977Z,63.64
2022-10-08T16:33:58.053Z,63.43
2022-10-08T16:36:27.257Z,63.63
2022-10-08T16:38:55.146Z,62.64
2022-10-08T16:41:28.854Z,63.35
2022-10-08T16:43:57.790Z,61.64
2022-10-08T16:46:28.199Z,61.50
2022-10-08T16:48:56.964Z,61.16
2022-10-08T16:51:27.021Z,62.42
2022-10-08T16:53:56.511Z,62.77
2022-10-08T16:56:26.815Z,62.48
2022-10-08T16:58:56.423Z,63.26
2022-10-08T17:01:24.412Z,62.71
2022-10-08T17:03:52.938Z,63.84
2022-10-08T17:06:22.598Z,64.52
2022-10-08T17:08:51.378Z,64.01
2022-10-08T17:11:19.415Z,64.50
2022-10-08T17:13:55.958Z,66.83
2022-10-08T17:16:26.429Z,64.40
2022-10-08T17:18:57.013Z,64.48
2022-10-08T17:21:25.362Z,64.35
2022-10-08T17:23:52.928Z,64.21
2022-10-08T17:26:22.760Z,64.66
2022-10-08T17:28:52.070Z,64.21
2022-10-08T17:31:22.696Z,65.31
2022-10-08T17:33:50.663Z,64.80
2022-10-08T17:36:26.651Z,64.32
2022-10-08T17:38:56.758Z,65.27
2022-10-08T17:41:34.825Z,66.16
2022-10-08T17:44:05.437Z,65.71
2022-10-08T17:46:36.415Z,66.15
2022-10-08T17:49:04.790Z,66.04
2022-10-08T17:51:32.765Z,65.18
2022-10-08T17:54:03.658Z,65.45
2022-10-08T17:56:32.625Z,66.19
2022-10-08T17:59:00.616Z,65.49
2022-10-08T18:01:31.124Z,66.09
2022-10-08T18:04:10.333Z,67.84
2022-10-08T18:06:43.446Z,66.83
2022-10-08T18:09:13.943Z,66.21
2022-10-08T18:11:45.070Z,66.92
2022-10-08T18:14:13.273Z,66.07
2022-10-08T18:16:45.568Z,66.58
2022-10-08T18:19:15.246Z,66.37
2022-10-08T18:21:42.733Z,65.73
2022-10-08T18:24:11.230Z,65.95
2022-10-08T18:26:38.719Z,65.76
2022-10-08T18:29:09.865Z,67.53
2022-10-08T18:31:39.850Z,67.13
2022-10-08T18:34:11.980Z,67.73
2022-10-08T18:36:40.640Z,68.30
2022-10-08T18:39:14.610Z,70.01
2022-10-08T18:41:44.852Z,68.76
2022-10-08T18:44:14.943Z,68.65
2022-10-08T18:46:45.755Z,67.58
2022-10-08T18:49:16.334Z,67.39
2022-10-08T18:51:44.240Z,67.21
2022-10-08T18:54:12.356Z,66.73
2022-10-08T18:56:41.358Z,66.04
2022-10-08T18:59:12.991Z,67.56
2022-10-08T19:01:43.041Z,65.86
2022-10-08T19:04:19.219Z,64.84
2022-10-08T19:06:48.637Z,64.07
2022-10-08T19:09:16.429Z,64.00
2022-10-08T19:11:49.777Z,64.72
2022-10-08T19:14:19.469Z,64.90
2022-10-08T19:16:47.595Z,64.32
2022-10-08T19:19:22.313Z,64.04
2022-10-08T19:21:50.792Z,64.81
2022-10-08T19:24:21.450Z,65.26
2022-10-08T19:26:50.055Z,65.01
2022-10-08T19:29:20.625Z,64.11
2022-10-08T19:31:49.143Z,62.62
2022-10-08T19:34:19.795Z,63.66
2022-10-08T19:36:48.210Z,62.08
2022-10-08T19:39:19.413Z,63.14
2022-10-08T19:41:47.080Z,62.14
2022-10-08T19:44:14.839Z,61.78
2022-10-08T19:46:42.419Z,62.16
2022-10-08T19:49:10.341Z,62.47
2022-10-08T19:51:38.571Z,62.71
2022-10-08T19:54:06.176Z,62.86
2022-10-08T19:56:33.972Z,63.60
2022-10-08T19:59:01.536Z,62.64
2022-10-08T20:01:32.832Z,63.51
2022-10-08T20:04:02.126Z,63.96
2022-10-08T20:06:32.238Z,63.65
2022-10-08T20:09:02.288Z,63.25
2022-10-08T20:11:31.515Z,63.82
2022-10-08T20:13:59.983Z,64.16
2022-10-08T20:16:34.003Z,65.27
2022-10-08T20:19:04.776Z,65.21
2022-10-08T20:21:34.615Z,64.51
2022-10-08T20:24:02.782Z,63.93
2022-10-08T20:26:32.816Z,64.70
2022-10-08T20:29:07.354Z,65.98
2022-10-08T20:31:40.833Z,64.95
2022-10-08T20:34:20.166Z,66.22
2022-10-08T20:36:49.000Z,65.10
2022-10-08T20:39:18.609Z,65.13
2022-10-08T20:41:46.574Z,64.77
2022-10-08T20:44:14.924Z,65.38
2022-10-08T20:46:42.875Z,65.45
2022-10-08T20:49:12.252Z,65.73
2022-10-08T20:51:41.614Z,66.34
2022-10-08T20:54:12.530Z,66.21
2022-10-08T20:56:41.090Z,66.25
2022-10-08T20:59:15.814Z,68.03
2022-10-08T21:01:43.383Z,65.34
2022-10-08T21:04:11.351Z,65.58
2022-10-08T21:06:44.376Z,66.38
2022-10-08T21:09:12.964Z,65.51
2022-10-08T21:11:41.048Z,65.08
2022-10-08T21:14:10.231Z,65.19
2022-10-08T21:16:40.179Z,65.24
2022-10-08T21:19:11.636Z,65.55
2022-10-08T21:21:39.858Z,65.19
2022-10-08T21:24:07.470Z,64.78
2022-10-08T21:26:37.580Z,64.92
2022-10-08T21:29:08.297Z,65.49
2022-10-08T21:31:37.249Z,64.86
2022-10-08T21:34:06.019Z,64.84
2022-10-08T21:36:39.083Z,66.02
2022-10-08T21:39:08.435Z,65.02
2022-10-08T21:41:38.586Z,63.62
2022-10-08T21:44:08.734Z,63.94
2022-10-08T21:46:41.417Z,65.39
2022-10-08T21:49:13.237Z,65.16
2022-10-08T21:51:40.886Z,63.60
2022-10-08T21:54:56.340Z,65.55
2022-10-08T21:57:23.726Z,62.56
2022-10-08T21:59:51.157Z,62.72
2022-10-08T22:02:18.663Z,62.60
2022-10-08T22:04:45.996Z,63.50
2022-10-08T22:07:13.485Z,63.67
2022-10-08T22:09:42.060Z,63.16
2022-10-08T22:12:09.479Z,62.92
2022-10-08T22:14:37.039Z,62.77
2022-10-08T22:17:04.410Z,63.46
2022-10-08T22:19:31.847Z,62.74
2022-10-08T22:21:59.257Z,63.03
2022-10-08T22:24:26.724Z,63.09
2022-10-08T22:26:54.187Z,63.59
2022-10-08T22:29:21.642Z,63.68
2022-10-08T22:31:49.088Z,63.68
2022-10-08T22:34:16.592Z,62.94
2022-10-08T22:36:45.135Z,63.63
2022-10-08T22:39:13.029Z,62.83
2022-10-08T22:41:40.733Z,62.88
2022-10-08T22:44:08.164Z,62.62
2022-10-08T22:46:38.738Z,63.82
2022-10-08T22:49:09.385Z,63.37
2022-10-08T22:51:37.234Z,63.11
2022-10-08T22:54:05.380Z,63.14
2022-10-08T22:56:33.334Z,63.37
2022-10-08T22:59:01.065Z,62.60
2022-10-08T23:01:29.917Z,63.43
2022-10-08T23:03:58.393Z,63.50
2022-10-08T23:06:28.752Z,63.52
2022-10-08T23:09:01.710Z,64.12
2022-10-08T23:11:30.483Z,63.04
2022-10-08T23:13:59.932Z,62.59
2022-10-08T23:16:29.245Z,62.65
2022-10-08T23:18:59.448Z,62.66
2022-10-08T23:21:27.040Z,62.00
2022-10-08T23:23:55.783Z,62.04
2022-10-08T23:26:24.048Z,62.56
2022-10-08T23:28:57.293Z,64.16
2022-10-08T23:31:27.878Z,63.07
2022-10-08T23:33:56.379Z,63.45
2022-10-08T23:36:32.151Z,64.52
2022-10-08T23:38:59.823Z,63.52
2022-10-08T23:41:27.991Z,63.20
2022-10-08T23:43:57.184Z,63.72
2022-10-08T23:46:27.056Z,63.50
2022-10-08T23:48:55.044Z,62.24
2022-10-08T23:51:23.935Z,62.48
2022-10-08T23:53:52.651Z,62.35
2022-10-08T23:56:21.206Z,62.79
2022-10-08T23:58:48.877Z,62.21
